sensor_id;sensor_type;location;lat;lon;timestamp;pressure;altitude;pressure_sealevel;temperature;humidity
62055;BME280;48653;51.742;-1.256;2023-04-26T00:01:53;101265.16;;;8.02;39.46
62055;BME280;48653;51.742;-1.256;2023-04-26T00:04:18;101260.10;;;8.21;39.75
62055;BME280;48653;51.742;-1.256;2023-04-26T00:06:44;101250.05;;;7.99;39.79
62055;BME280;48653;51.742;-1.256;2023-04-26T00:09:09;101240.85;;;8.25;39.76
62055;BME280;48653;51.742;-1.256;2023-04-26T00:11:34;101238.23;;;8.35;39.21
62055;BME280;48653;51.742;-1.256;2023-04-26T00:14:00;101240.01;;;8.47;39.14
62055;BME280;48653;51.742;-1.256;2023-04-26T00:16:25;101236.90;;;8.43;40.00
62055;BME280;48653;51.742;-1.256;2023-04-26T00:18:50;101239.67;;;8.33;40.42
62055;BME280;48653;51.742;-1.256;2023-04-26T00:21:15;101234.88;;;8.48;40.17
62055;BME280;48653;51.742;-1.256;2023-04-26T00:23:41;101228.66;;;7.84;40.42
62055;BME280;48653;51.742;-1.256;2023-04-26T00:26:06;101227.81;;;8.53;39.26
62055;BME280;48653;51.742;-1.256;2023-04-26T00:28:32;101220.76;;;8.14;39.56
62055;BME280;48653;51.742;-1.256;2023-04-26T00:30:57;101217.53;;;8.07;39.43
62055;BME280;48653;51.742;-1.256;2023-04-26T00:33:23;101210.76;;;8.10;39.83
62055;BME280;48653;51.742;-1.256;2023-04-26T00:35:48;101205.70;;;8.00;39.89
62055;BME280;48653;51.742;-1.256;2023-04-26T00:38:13;101207.21;;;7.38;40.85
62055;BME280;48653;51.742;-1.256;2023-04-26T00:40:38;101207.99;;;7.47;41.08
62055;BME280;48653;51.742;-1.256;2023-04-26T00:43:05;101210.37;;;7.57;40.85
62055;BME280;48653;51.742;-1.256;2023-04-26T00:45:30;101214.83;;;7.70;40.53
62055;BME280;48653;51.742;-1.256;2023-04-26T00:47:55;101214.68;;;7.88;40.63
62055;BME280;48653;51.742;-1.256;2023-04-26T00:50:20;101210.25;;;7.81;40.87
62055;BME280;48653;51.742;-1.256;2023-04-26T00:52:46;101210.37;;;8.00;40.41
62055;BME280;48653;51.742;-1.256;2023-04-26T00:55:12;101212.18;;;8.05;41.01
62055;BME280;48653;51.742;-1.256;2023-04-26T00:57:38;101209.39;;;8.05;41.14
62055;BME280;48653;51.742;-1.256;2023-04-26T01:00:03;101206.45;;;7.93;40.47
62055;BME280;48653;51.742;-1.256;2023-04-26T01:02:28;101200.05;;;7.93;41.14
62055;BME280;48653;51.742;-1.256;2023-04-26T01:04:54;101198.32;;;7.89;40.62
62055;BME280;48653;51.742;-1.256;2023-04-26T01:07:19;101203.25;;;8.04;40.59
62055;BME280;48653;51.742;-1.256;2023-04-26T01:09:46;101205.28;;;7.75;41.31
62055;BME280;48653;51.742;-1.256;2023-04-26T01:12:10;101207.87;;;7.81;41.63
62055;BME280;48653;51.742;-1.256;2023-04-26T01:14:35;101207.40;;;7.86;41.27
62055;BME280;48653;51.742;-1.256;2023-04-26T01:17:01;101205.59;;;8.25;41.23
62055;BME280;48653;51.742;-1.256;2023-04-26T01:19:26;101201.31;;;7.88;41.01
62055;BME280;48653;51.742;-1.256;2023-04-26T01:21:51;101200.97;;;7.76;41.40
62055;BME280;48653;51.742;-1.256;2023-04-26T01:24:16;101198.36;;;7.53;41.55
62055;BME280;48653;51.742;-1.256;2023-04-26T01:26:42;101195.29;;;7.51;42.04
62055;BME280;48653;51.742;-1.256;2023-04-26T01:29:12;101195.14;;;7.83;41.72
62055;BME280;48653;51.742;-1.256;2023-04-26T01:31:33;101198.90;;;7.50;41.52
62055;BME280;48653;51.742;-1.256;2023-04-26T01:33:58;101204.65;;;7.52;41.40
62055;BME280;48653;51.742;-1.256;2023-04-26T01:36:24;101205.84;;;7.67;41.48
62055;BME280;48653;51.742;-1.256;2023-04-26T01:38:49;101211.60;;;7.34;41.66
62055;BME280;48653;51.742;-1.256;2023-04-26T01:41:14;101214.99;;;7.40;41.50
62055;BME280;48653;51.742;-1.256;2023-04-26T01:43:39;101215.39;;;7.27;42.18
62055;BME280;48653;51.742;-1.256;2023-04-26T01:46:05;101216.27;;;7.40;42.18
62055;BME280;48653;51.742;-1.256;2023-04-26T01:48:30;101214.09;;;7.51;40.93
62055;BME280;48653;51.742;-1.256;2023-04-26T01:50:56;101208.92;;;7.77;42.30
62055;BME280;48653;51.742;-1.256;2023-04-26T01:53:21;101204.57;;;7.26;42.59
62055;BME280;48653;51.742;-1.256;2023-04-26T01:55:46;101200.73;;;7.30;42.41
62055;BME280;48653;51.742;-1.256;2023-04-26T01:58:12;101206.69;;;7.57;42.21
62055;BME280;48653;51.742;-1.256;2023-04-26T02:00:37;101208.22;;;7.27;42.36
62055;BME280;48653;51.742;-1.256;2023-04-26T02:03:03;101212.11;;;6.95;44.04
62055;BME280;48653;51.742;-1.256;2023-04-26T02:05:28;101208.91;;;7.24;42.97
62055;BME280;48653;51.742;-1.256;2023-04-26T02:07:54;101207.96;;;7.11;43.97
62055;BME280;48653;51.742;-1.256;2023-04-26T02:10:19;101204.56;;;7.23;42.83
62055;BME280;48653;51.742;-1.256;2023-04-26T02:12:44;101201.31;;;7.63;43.48
62055;BME280;48653;51.742;-1.256;2023-04-26T02:15:10;101195.94;;;7.26;43.88
62055;BME280;48653;51.742;-1.256;2023-04-26T02:17:35;101194.56;;;7.44;43.48
62055;BME280;48653;51.742;-1.256;2023-04-26T02:20:01;101195.29;;;7.31;43.44
62055;BME280;48653;51.742;-1.256;2023-04-26T02:22:26;101196.30;;;7.36;43.65
62055;BME280;48653;51.742;-1.256;2023-04-26T02:24:51;101198.53;;;7.63;43.61
62055;BME280;48653;51.742;-1.256;2023-04-26T02:27:16;101200.39;;;7.01;43.67
62055;BME280;48653;51.742;-1.256;2023-04-26T02:29:41;101204.60;;;7.36;44.01
62055;BME280;48653;51.742;-1.256;2023-04-26T02:32:07;101205.55;;;7.18;44.08
62055;BME280;48653;51.742;-1.256;2023-04-26T02:34:33;101207.02;;;6.90;45.03
62055;BME280;48653;51.742;-1.256;2023-04-26T02:36:58;101204.14;;;7.23;44.26
62055;BME280;48653;51.742;-1.256;2023-04-26T02:39:23;101205.32;;;7.32;44.55
62055;BME280;48653;51.742;-1.256;2023-04-26T02:41:48;101207.74;;;7.36;44.42
62055;BME280;48653;51.742;-1.256;2023-04-26T02:44:13;101207.92;;;7.47;44.31
62055;BME280;48653;51.742;-1.256;2023-04-26T02:46:39;101207.31;;;7.33;44.18
62055;BME280;48653;51.742;-1.256;2023-04-26T02:49:04;101208.05;;;7.52;43.62
62055;BME280;48653;51.742;-1.256;2023-04-26T02:51:29;101206.60;;;7.61;42.91
62055;BME280;48653;51.742;-1.256;2023-04-26T02:53:54;101204.55;;;7.14;43.85
62055;BME280;48653;51.742;-1.256;2023-04-26T02:56:20;101200.63;;;7.58;44.25
62055;BME280;48653;51.742;-1.256;2023-04-26T02:58:45;101195.62;;;7.76;42.95
62055;BME280;48653;51.742;-1.256;2023-04-26T03:01:10;101197.60;;;7.82;42.92
62055;BME280;48653;51.742;-1.256;2023-04-26T03:03:36;101197.92;;;7.60;44.01
62055;BME280;48653;51.742;-1.256;2023-04-26T03:06:01;101199.39;;;7.57;44.38
62055;BME280;48653;51.742;-1.256;2023-04-26T03:08:27;101196.06;;;7.50;44.55
62055;BME280;48653;51.742;-1.256;2023-04-26T03:10:52;101191.30;;;7.44;45.01
62055;BME280;48653;51.742;-1.256;2023-04-26T03:13:17;101194.13;;;7.75;44.20
62055;BME280;48653;51.742;-1.256;2023-04-26T03:15:44;101197.17;;;7.20;44.64
62055;BME280;48653;51.742;-1.256;2023-04-26T03:18:08;101195.93;;;7.26;43.77
62055;BME280;48653;51.742;-1.256;2023-04-26T03:20:33;101190.88;;;7.32;43.97
62055;BME280;48653;51.742;-1.256;2023-04-26T03:22:59;101188.73;;;7.66;44.36
62055;BME280;48653;51.742;-1.256;2023-04-26T03:25:24;101188.30;;;7.02;44.83
62055;BME280;48653;51.742;-1.256;2023-04-26T03:27:50;101185.78;;;7.55;44.80
62055;BME280;48653;51.742;-1.256;2023-04-26T03:30:16;101182.12;;;7.43;44.39
62055;BME280;48653;51.742;-1.256;2023-04-26T03:32:41;101185.14;;;7.23;44.59
62055;BME280;48653;51.742;-1.256;2023-04-26T03:35:07;101181.57;;;7.09;44.81
62055;BME280;48653;51.742;-1.256;2023-04-26T03:37:32;101180.74;;;7.19;44.65
62055;BME280;48653;51.742;-1.256;2023-04-26T03:39:57;101178.90;;;7.57;44.51
62055;BME280;48653;51.742;-1.256;2023-04-26T03:42:22;101178.84;;;7.34;45.02
62055;BME280;48653;51.742;-1.256;2023-04-26T03:44:48;101177.25;;;7.10;44.50
62055;BME280;48653;51.742;-1.256;2023-04-26T03:47:13;101177.12;;;7.06;44.53
62055;BME280;48653;51.742;-1.256;2023-04-26T03:49:38;101173.33;;;7.25;44.47
62055;BME280;48653;51.742;-1.256;2023-04-26T03:52:04;101174.35;;;7.18;44.80
62055;BME280;48653;51.742;-1.256;2023-04-26T03:54:29;101169.34;;;7.44;44.02
62055;BME280;48653;51.742;-1.256;2023-04-26T03:56:54;101171.02;;;7.58;44.20
62055;BME280;48653;51.742;-1.256;2023-04-26T03:59:20;101168.00;;;7.58;44.03
62055;BME280;48653;51.742;-1.256;2023-04-26T04:01:45;101161.12;;;7.04;44.78
62055;BME280;48653;51.742;-1.256;2023-04-26T04:04:11;101158.01;;;7.09;44.39
62055;BME280;48653;51.742;-1.256;2023-04-26T04:06:36;101154.25;;;7.02;43.84
62055;BME280;48653;51.742;-1.256;2023-04-26T04:09:01;101148.75;;;7.61;44.04
62055;BME280;48653;51.742;-1.256;2023-04-26T04:11:27;101143.97;;;7.58;43.47
62055;BME280;48653;51.742;-1.256;2023-04-26T04:13:52;101146.47;;;7.36;44.57
62055;BME280;48653;51.742;-1.256;2023-04-26T04:16:17;101145.39;;;7.43;44.01
62055;BME280;48653;51.742;-1.256;2023-04-26T04:18:43;101148.13;;;7.34;44.41
62055;BME280;48653;51.742;-1.256;2023-04-26T04:21:07;101148.42;;;7.34;44.66
62055;BME280;48653;51.742;-1.256;2023-04-26T04:23:32;101142.98;;;7.44;44.01
62055;BME280;48653;51.742;-1.256;2023-04-26T04:25:58;101141.51;;;7.20;43.78
62055;BME280;48653;51.742;-1.256;2023-04-26T04:28:23;101139.12;;;7.32;43.34
62055;BME280;48653;51.742;-1.256;2023-04-26T04:30:48;101136.98;;;7.43;44.11
62055;BME280;48653;51.742;-1.256;2023-04-26T04:33:13;101131.57;;;7.57;43.34
62055;BME280;48653;51.742;-1.256;2023-04-26T04:35:40;101128.09;;;7.39;43.49
62055;BME280;48653;51.742;-1.256;2023-04-26T04:38:05;101132.55;;;7.14;43.77
62055;BME280;48653;51.742;-1.256;2023-04-26T04:40:30;101127.58;;;7.65;42.88
62055;BME280;48653;51.742;-1.256;2023-04-26T04:42:56;101128.70;;;6.73;45.01
62055;BME280;48653;51.742;-1.256;2023-04-26T04:45:22;101128.06;;;7.44;44.01
62055;BME280;48653;51.742;-1.256;2023-04-26T04:47:47;101126.86;;;7.61;43.21
62055;BME280;48653;51.742;-1.256;2023-04-26T04:50:12;101127.68;;;7.59;43.71
62055;BME280;48653;51.742;-1.256;2023-04-26T04:52:38;101127.39;;;7.77;42.82
62055;BME280;48653;51.742;-1.256;2023-04-26T04:55:04;101129.84;;;7.35;43.12
62055;BME280;48653;51.742;-1.256;2023-04-26T04:57:30;101129.39;;;7.04;44.34
62055;BME280;48653;51.742;-1.256;2023-04-26T04:59:55;101129.78;;;7.16;44.24
62055;BME280;48653;51.742;-1.256;2023-04-26T05:02:20;101134.54;;;7.03;44.84
62055;BME280;48653;51.742;-1.256;2023-04-26T05:04:46;101130.97;;;7.16;44.30
62055;BME280;48653;51.742;-1.256;2023-04-26T05:07:11;101132.64;;;7.40;43.82
62055;BME280;48653;51.742;-1.256;2023-04-26T05:09:37;101135.16;;;6.64;45.60
62055;BME280;48653;51.742;-1.256;2023-04-26T05:12:02;101138.06;;;7.02;44.53
62055;BME280;48653;51.742;-1.256;2023-04-26T05:14:28;101138.68;;;7.05;44.89
62055;BME280;48653;51.742;-1.256;2023-04-26T05:16:52;101139.81;;;7.22;44.03
62055;BME280;48653;51.742;-1.256;2023-04-26T05:19:18;101142.93;;;7.20;44.92
62055;BME280;48653;51.742;-1.256;2023-04-26T05:21:43;101142.52;;;6.99;45.21
62055;BME280;48653;51.742;-1.256;2023-04-26T05:24:08;101144.88;;;7.37;44.35
62055;BME280;48653;51.742;-1.256;2023-04-26T05:26:34;101145.43;;;7.60;44.16
62055;BME280;48653;51.742;-1.256;2023-04-26T05:28:58;101146.55;;;7.76;44.01
62055;BME280;48653;51.742;-1.256;2023-04-26T05:31:24;101147.96;;;7.39;44.58
62055;BME280;48653;51.742;-1.256;2023-04-26T05:33:50;101146.71;;;7.60;44.05
62055;BME280;48653;51.742;-1.256;2023-04-26T05:36:15;101149.14;;;7.68;44.56
62055;BME280;48653;51.742;-1.256;2023-04-26T05:38:41;101151.71;;;6.99;45.37
62055;BME280;48653;51.742;-1.256;2023-04-26T05:41:07;101151.98;;;7.42;44.53
62055;BME280;48653;51.742;-1.256;2023-04-26T05:43:32;101152.51;;;7.20;45.10
62055;BME280;48653;51.742;-1.256;2023-04-26T05:45:57;101149.54;;;7.30;44.42
62055;BME280;48653;51.742;-1.256;2023-04-26T05:48:24;101150.89;;;7.28;44.76
62055;BME280;48653;51.742;-1.256;2023-04-26T05:50:48;101150.17;;;7.46;44.53
62055;BME280;48653;51.742;-1.256;2023-04-26T05:53:13;101147.73;;;7.81;44.50
62055;BME280;48653;51.742;-1.256;2023-04-26T05:55:39;101142.92;;;7.83;44.20
62055;BME280;48653;51.742;-1.256;2023-04-26T05:58:04;101142.69;;;7.52;44.68
62055;BME280;48653;51.742;-1.256;2023-04-26T06:00:29;101143.75;;;7.55;44.46
62055;BME280;48653;51.742;-1.256;2023-04-26T06:02:55;101145.45;;;8.09;44.25
62055;BME280;48653;51.742;-1.256;2023-04-26T06:05:21;101149.98;;;7.48;45.15
62055;BME280;48653;51.742;-1.256;2023-04-26T06:07:46;101148.59;;;7.25;45.52
62055;BME280;48653;51.742;-1.256;2023-04-26T06:10:12;101148.24;;;7.11;45.79
62055;BME280;48653;51.742;-1.256;2023-04-26T06:12:37;101152.20;;;7.81;45.01
62055;BME280;48653;51.742;-1.256;2023-04-26T06:15:04;101157.00;;;6.92;46.03
62055;BME280;48653;51.742;-1.256;2023-04-26T06:17:28;101155.76;;;7.60;44.87
62055;BME280;48653;51.742;-1.256;2023-04-26T06:19:53;101160.35;;;7.36;45.71
62055;BME280;48653;51.742;-1.256;2023-04-26T06:22:19;101158.56;;;7.79;45.07
62055;BME280;48653;51.742;-1.256;2023-04-26T06:24:44;101162.69;;;6.91;45.72
62055;BME280;48653;51.742;-1.256;2023-04-26T06:27:09;101165.40;;;7.55;45.61
62055;BME280;48653;51.742;-1.256;2023-04-26T06:29:35;101164.49;;;7.32;45.52
62055;BME280;48653;51.742;-1.256;2023-04-26T06:32:00;101164.95;;;8.28;44.52
62055;BME280;48653;51.742;-1.256;2023-04-26T06:34:25;101160.21;;;7.77;45.19
62055;BME280;48653;51.742;-1.256;2023-04-26T06:36:51;101158.31;;;7.84;44.29
62055;BME280;48653;51.742;-1.256;2023-04-26T06:39:16;101159.65;;;7.39;45.90
62055;BME280;48653;51.742;-1.256;2023-04-26T06:41:41;101157.43;;;7.99;45.16
62055;BME280;48653;51.742;-1.256;2023-04-26T06:44:06;101158.26;;;7.71;45.73
62055;BME280;48653;51.742;-1.256;2023-04-26T06:46:32;101166.87;;;7.98;44.97
62055;BME280;48653;51.742;-1.256;2023-04-26T06:48:57;101172.24;;;7.73;45.10
62055;BME280;48653;51.742;-1.256;2023-04-26T06:51:23;101171.08;;;8.20;44.30
62055;BME280;48653;51.742;-1.256;2023-04-26T06:53:48;101166.67;;;8.24;44.68
62055;BME280;48653;51.742;-1.256;2023-04-26T06:56:13;101161.50;;;7.13;45.12
62055;BME280;48653;51.742;-1.256;2023-04-26T06:58:39;101154.60;;;7.59;44.75
62055;BME280;48653;51.742;-1.256;2023-04-26T07:01:04;101150.84;;;7.93;44.70
62055;BME280;48653;51.742;-1.256;2023-04-26T07:03:30;101144.73;;;7.68;45.43
62055;BME280;48653;51.742;-1.256;2023-04-26T07:05:55;101140.75;;;8.24;44.85
62055;BME280;48653;51.742;-1.256;2023-04-26T07:08:20;101140.68;;;7.30;46.75
62055;BME280;48653;51.742;-1.256;2023-04-26T07:10:46;101145.06;;;6.76;46.73
62055;BME280;48653;51.742;-1.256;2023-04-26T07:13:11;101143.35;;;7.70;45.16
62055;BME280;48653;51.742;-1.256;2023-04-26T07:15:37;101143.83;;;6.73;46.40
62055;BME280;48653;51.742;-1.256;2023-04-26T07:18:02;101144.56;;;7.80;45.10
62055;BME280;48653;51.742;-1.256;2023-04-26T07:20:27;101150.26;;;8.11;44.73
62055;BME280;48653;51.742;-1.256;2023-04-26T07:22:53;101149.94;;;8.06;43.91
62055;BME280;48653;51.742;-1.256;2023-04-26T07:25:18;101149.03;;;7.70;44.32
62055;BME280;48653;51.742;-1.256;2023-04-26T07:27:43;101144.24;;;7.51;44.64
62055;BME280;48653;51.742;-1.256;2023-04-26T07:30:09;101151.25;;;8.12;43.35
62055;BME280;48653;51.742;-1.256;2023-04-26T07:32:34;101149.75;;;8.17;43.10
62055;BME280;48653;51.742;-1.256;2023-04-26T07:34:59;101150.64;;;7.92;43.21
62055;BME280;48653;51.742;-1.256;2023-04-26T07:37:24;101153.98;;;7.39;43.17
62055;BME280;48653;51.742;-1.256;2023-04-26T07:39:50;101157.46;;;8.26;42.89
62055;BME280;48653;51.742;-1.256;2023-04-26T07:42:15;101162.57;;;8.35;42.57
62055;BME280;48653;51.742;-1.256;2023-04-26T07:44:41;101154.44;;;8.68;42.44
62055;BME280;48653;51.742;-1.256;2023-04-26T07:47:11;101157.71;;;8.56;42.39
62055;BME280;48653;51.742;-1.256;2023-04-26T07:49:31;101159.70;;;8.85;42.30
62055;BME280;48653;51.742;-1.256;2023-04-26T07:51:56;101158.44;;;8.87;41.40
62055;BME280;48653;51.742;-1.256;2023-04-26T07:54:22;101161.29;;;8.46;41.85
62055;BME280;48653;51.742;-1.256;2023-04-26T07:56:47;101154.82;;;8.98;40.75
62055;BME280;48653;51.742;-1.256;2023-04-26T07:59:13;101157.04;;;9.47;40.40
62055;BME280;48653;51.742;-1.256;2023-04-26T08:01:38;101161.90;;;8.28;41.76
62055;BME280;48653;51.742;-1.256;2023-04-26T08:04:04;101152.75;;;8.78;40.56
62055;BME280;48653;51.742;-1.256;2023-04-26T08:06:29;101154.19;;;7.89;41.85
62055;BME280;48653;51.742;-1.256;2023-04-26T08:08:54;101154.17;;;8.18;41.12
62055;BME280;48653;51.742;-1.256;2023-04-26T08:11:19;101148.97;;;7.39;42.27
62055;BME280;48653;51.742;-1.256;2023-04-26T08:13:44;101146.14;;;7.78;41.35
62055;BME280;48653;51.742;-1.256;2023-04-26T08:16:09;101145.12;;;7.96;41.79
62055;BME280;48653;51.742;-1.256;2023-04-26T08:18:34;101143.33;;;8.76;40.91
62055;BME280;48653;51.742;-1.256;2023-04-26T08:21:00;101145.34;;;8.49;41.06
62055;BME280;48653;51.742;-1.256;2023-04-26T08:23:24;101142.74;;;8.14;41.43
62055;BME280;48653;51.742;-1.256;2023-04-26T08:25:50;101146.01;;;7.84;41.82
62055;BME280;48653;51.742;-1.256;2023-04-26T08:28:15;101139.24;;;7.57;41.04
62055;BME280;48653;51.742;-1.256;2023-04-26T08:30:40;101136.73;;;8.50;40.30
62055;BME280;48653;51.742;-1.256;2023-04-26T08:33:05;101139.05;;;9.20;39.71
62055;BME280;48653;51.742;-1.256;2023-04-26T08:35:30;101140.75;;;9.40;38.73
62055;BME280;48653;51.742;-1.256;2023-04-26T08:37:55;101138.78;;;9.83;38.24
62055;BME280;48653;51.742;-1.256;2023-04-26T08:40:22;101145.19;;;8.84;39.28
62055;BME280;48653;51.742;-1.256;2023-04-26T08:42:46;101144.82;;;9.32;38.74
62055;BME280;48653;51.742;-1.256;2023-04-26T08:45:11;101137.13;;;9.11;37.30
62055;BME280;48653;51.742;-1.256;2023-04-26T08:47:40;101144.07;;;8.61;38.80
62055;BME280;48653;51.742;-1.256;2023-04-26T08:50:03;101140.29;;;8.67;39.07
62055;BME280;48653;51.742;-1.256;2023-04-26T08:52:27;101141.75;;;8.63;39.07
62055;BME280;48653;51.742;-1.256;2023-04-26T08:54:53;101140.47;;;9.30;38.20
62055;BME280;48653;51.742;-1.256;2023-04-26T08:57:17;101137.60;;;9.60;38.79
62055;BME280;48653;51.742;-1.256;2023-04-26T08:59:43;101141.90;;;9.67;37.54
62055;BME280;48653;51.742;-1.256;2023-04-26T09:02:09;101147.02;;;9.78;37.79
62055;BME280;48653;51.742;-1.256;2023-04-26T09:04:32;101149.19;;;7.75;39.19
62055;BME280;48653;51.742;-1.256;2023-04-26T09:06:59;101153.99;;;7.66;40.36
62055;BME280;48653;51.742;-1.256;2023-04-26T09:09:23;101147.28;;;7.15;40.93
62055;BME280;48653;51.742;-1.256;2023-04-26T09:11:53;101151.12;;;7.38;40.97
62055;BME280;48653;51.742;-1.256;2023-04-26T09:14:13;101151.83;;;8.11;39.97
62055;BME280;48653;51.742;-1.256;2023-04-26T09:16:38;101148.58;;;8.44;38.69
62055;BME280;48653;51.742;-1.256;2023-04-26T09:19:03;101145.99;;;8.47;39.06
62055;BME280;48653;51.742;-1.256;2023-04-26T09:21:28;101149.91;;;8.85;38.16
62055;BME280;48653;51.742;-1.256;2023-04-26T09:23:56;101143.43;;;9.37;37.65
62055;BME280;48653;51.742;-1.256;2023-04-26T09:26:20;101139.39;;;10.00;36.52
62055;BME280;48653;51.742;-1.256;2023-04-26T09:28:44;101148.86;;;8.98;38.43
62055;BME280;48653;51.742;-1.256;2023-04-26T09:31:09;101147.86;;;10.14;36.91
62055;BME280;48653;51.742;-1.256;2023-04-26T09:33:35;101152.82;;;10.06;36.60
62055;BME280;48653;51.742;-1.256;2023-04-26T09:36:11;101148.63;;;9.45;37.24
62055;BME280;48653;51.742;-1.256;2023-04-26T09:38:24;101149.96;;;10.05;36.23
62055;BME280;48653;51.742;-1.256;2023-04-26T09:40:50;101157.99;;;9.07;38.40
62055;BME280;48653;51.742;-1.256;2023-04-26T09:43:16;101154.51;;;9.59;37.57
62055;BME280;48653;51.742;-1.256;2023-04-26T09:45:44;101150.81;;;9.20;38.32
62055;BME280;48653;51.742;-1.256;2023-04-26T09:48:13;101149.28;;;9.55;37.82
62055;BME280;48653;51.742;-1.256;2023-04-26T09:50:32;101150.62;;;9.34;37.08
62055;BME280;48653;51.742;-1.256;2023-04-26T09:52:58;101144.70;;;9.83;38.03
62055;BME280;48653;51.742;-1.256;2023-04-26T09:55:27;101134.46;;;9.72;37.44
62055;BME280;48653;51.742;-1.256;2023-04-26T09:57:48;101130.52;;;10.25;36.38
62055;BME280;48653;51.742;-1.256;2023-04-26T10:00:14;101130.02;;;10.18;37.34
62055;BME280;48653;51.742;-1.256;2023-04-26T10:02:38;101127.99;;;9.15;38.65
62055;BME280;48653;51.742;-1.256;2023-04-26T10:05:05;101123.24;;;9.41;37.52
62055;BME280;48653;51.742;-1.256;2023-04-26T10:07:29;101123.77;;;9.90;37.70
62055;BME280;48653;51.742;-1.256;2023-04-26T10:09:53;101121.68;;;9.68;36.46
62055;BME280;48653;51.742;-1.256;2023-04-26T10:12:19;101122.30;;;9.35;37.36
62055;BME280;48653;51.742;-1.256;2023-04-26T10:14:45;101120.67;;;9.39;37.86
62055;BME280;48653;51.742;-1.256;2023-04-26T10:17:10;101119.34;;;9.21;39.20
62055;BME280;48653;51.742;-1.256;2023-04-26T10:19:35;101117.94;;;8.84;38.35
62055;BME280;48653;51.742;-1.256;2023-04-26T10:22:03;101112.43;;;9.67;37.51
62055;BME280;48653;51.742;-1.256;2023-04-26T10:24:25;101107.30;;;10.44;36.78
62055;BME280;48653;51.742;-1.256;2023-04-26T10:26:51;101103.19;;;11.31;34.79
62055;BME280;48653;51.742;-1.256;2023-04-26T10:29:15;101100.82;;;11.71;34.85
62055;BME280;48653;51.742;-1.256;2023-04-26T10:34:17;101109.63;;;11.26;35.83
62055;BME280;48653;51.742;-1.256;2023-04-26T10:36:31;101103.80;;;11.27;35.97
62055;BME280;48653;51.742;-1.256;2023-04-26T10:41:29;101105.59;;;10.76;36.21
62055;BME280;48653;51.742;-1.256;2023-04-26T10:43:46;101101.36;;;11.39;35.43
62055;BME280;48653;51.742;-1.256;2023-04-26T10:48:37;101098.75;;;10.24;35.71
62055;BME280;48653;51.742;-1.256;2023-04-26T10:51:07;101093.48;;;9.95;37.05
62055;BME280;48653;51.742;-1.256;2023-04-26T10:53:28;101088.16;;;10.80;37.07
62055;BME280;48653;51.742;-1.256;2023-04-26T10:55:53;101093.00;;;10.39;36.27
62055;BME280;48653;51.742;-1.256;2023-04-26T10:58:27;101089.45;;;11.55;35.77
62055;BME280;48653;51.742;-1.256;2023-04-26T11:03:09;101088.68;;;11.41;34.79
62055;BME280;48653;51.742;-1.256;2023-04-26T11:05:37;101083.84;;;11.92;34.45
62055;BME280;48653;51.742;-1.256;2023-04-26T11:08:04;101087.88;;;11.43;35.02
62055;BME280;48653;51.742;-1.256;2023-04-26T11:10:25;101083.99;;;11.80;35.06
62055;BME280;48653;51.742;-1.256;2023-04-26T11:12:59;101088.86;;;12.13;34.46
62055;BME280;48653;51.742;-1.256;2023-04-26T11:15:16;101086.06;;;11.23;35.03
62055;BME280;48653;51.742;-1.256;2023-04-26T11:17:41;101084.82;;;10.64;35.54
62055;BME280;48653;51.742;-1.256;2023-04-26T11:20:08;101090.18;;;10.60;36.01
62055;BME280;48653;51.742;-1.256;2023-04-26T11:22:32;101085.24;;;11.21;34.99
62055;BME280;48653;51.742;-1.256;2023-04-26T11:24:59;101090.50;;;10.64;36.17
62055;BME280;48653;51.742;-1.256;2023-04-26T11:27:26;101087.35;;;9.88;36.40
62055;BME280;48653;51.742;-1.256;2023-04-26T11:29:47;101084.89;;;10.58;36.25
62055;BME280;48653;51.742;-1.256;2023-04-26T11:32:13;101081.52;;;10.72;35.93
62055;BME280;48653;51.742;-1.256;2023-04-26T11:34:38;101082.52;;;10.91;35.52
62055;BME280;48653;51.742;-1.256;2023-04-26T11:37:04;101082.78;;;10.93;35.74
62055;BME280;48653;51.742;-1.256;2023-04-26T11:39:30;101083.07;;;11.18;36.04
62055;BME280;48653;51.742;-1.256;2023-04-26T11:42:04;101083.53;;;11.95;35.23
62055;BME280;48653;51.742;-1.256;2023-04-26T11:44:18;101086.91;;;11.56;35.10
62055;BME280;48653;51.742;-1.256;2023-04-26T11:46:45;101086.58;;;11.52;35.37
62055;BME280;48653;51.742;-1.256;2023-04-26T11:49:09;101087.48;;;12.20;34.27
62055;BME280;48653;51.742;-1.256;2023-04-26T11:51:34;101088.52;;;12.24;33.89
62055;BME280;48653;51.742;-1.256;2023-04-26T11:54:00;101081.36;;;12.02;34.49
62055;BME280;48653;51.742;-1.256;2023-04-26T11:56:26;101086.96;;;10.08;36.68
62055;BME280;48653;51.742;-1.256;2023-04-26T11:58:52;101084.36;;;11.24;36.24
62055;BME280;48653;51.742;-1.256;2023-04-26T12:01:20;101084.84;;;11.70;35.20
62055;BME280;48653;51.742;-1.256;2023-04-26T12:03:42;101089.15;;;11.32;36.30
62055;BME280;48653;51.742;-1.256;2023-04-26T12:06:07;101086.22;;;11.55;36.98
62055;BME280;48653;51.742;-1.256;2023-04-26T12:08:32;101089.40;;;10.71;36.68
62055;BME280;48653;51.742;-1.256;2023-04-26T12:10:59;101088.79;;;11.11;36.35
62055;BME280;48653;51.742;-1.256;2023-04-26T12:13:24;101084.98;;;11.52;35.87
62055;BME280;48653;51.742;-1.256;2023-04-26T12:15:47;101085.08;;;11.51;35.93
62055;BME280;48653;51.742;-1.256;2023-04-26T12:18:13;101090.00;;;10.59;36.19
62055;BME280;48653;51.742;-1.256;2023-04-26T12:20:39;101087.55;;;10.68;36.73
62055;BME280;48653;51.742;-1.256;2023-04-26T12:23:05;101087.94;;;10.49;36.69
62055;BME280;48653;51.742;-1.256;2023-04-26T12:25:30;101087.36;;;10.68;37.03
62055;BME280;48653;51.742;-1.256;2023-04-26T12:27:55;101091.15;;;10.68;37.17
62055;BME280;48653;51.742;-1.256;2023-04-26T12:30:20;101086.54;;;10.13;38.00
62055;BME280;48653;51.742;-1.256;2023-04-26T12:32:45;101090.02;;;9.95;38.56
62055;BME280;48653;51.742;-1.256;2023-04-26T12:35:10;101081.16;;;10.26;38.55
62055;BME280;48653;51.742;-1.256;2023-04-26T12:37:35;101086.94;;;11.11;37.43
62055;BME280;48653;51.742;-1.256;2023-04-26T12:40:01;101082.08;;;10.59;37.35
62055;BME280;48653;51.742;-1.256;2023-04-26T12:42:26;101082.76;;;9.93;38.94
62055;BME280;48653;51.742;-1.256;2023-04-26T12:44:51;101083.05;;;10.49;37.92
62055;BME280;48653;51.742;-1.256;2023-04-26T12:47:17;101085.21;;;11.18;36.83